sensor_id;sensor_type;location;lat;lon;timestamp;pressure;altitude;pressure_sealevel;temperature;humidity
72798;BME280;61084;55.816;37.036;2023-05-22T00:02:16;100166.03;;;9.73;63.28
72798;BME280;61084;55.816;37.036;2023-05-22T00:04:42;100163.47;;;9.71;63.91
72798;BME280;61084;55.816;37.036;2023-05-22T00:07:08;100167.91;;;9.69;63.59
72798;BME280;61084;55.816;37.036;2023-05-22T00:09:33;100167.06;;;9.69;63.65
72798;BME280;61084;55.816;37.036;2023-05-22T00:11:59;100163.63;;;9.67;63.27
72798;BME280;61084;55.816;37.036;2023-05-22T00:14:25;100164.53;;;9.66;63.18
72798;BME280;61084;55.816;37.036;2023-05-22T00:16:51;100165.53;;;9.63;63.15
72798;BME280;61084;55.816;37.036;2023-05-22T00:19:17;100166.38;;;9.64;63.30
72798;BME280;61084;55.816;37.036;2023-05-22T00:21:47;100163.88;;;9.61;63.17
72798;BME280;61084;55.816;37.036;2023-05-22T00:24:16;100165.63;;;9.60;63.52
72798;BME280;61084;55.816;37.036;2023-05-22T00:26:41;100163.97;;;9.58;63.52
72798;BME280;61084;55.816;37.036;2023-05-22T00:29:08;100168.41;;;9.56;63.36
72798;BME280;61084;55.816;37.036;2023-05-22T00:31:34;100165.00;;;9.54;63.20
72798;BME280;61084;55.816;37.036;2023-05-22T00:34:00;100158.97;;;9.52;63.47
72798;BME280;61084;55.816;37.036;2023-05-22T00:36:26;100171.19;;;9.51;63.92
72798;BME280;61084;55.816;37.036;2023-05-22T00:38:52;100174.75;;;9.50;63.46
72798;BME280;61084;55.816;37.036;2023-05-22T00:41:18;100173.88;;;9.50;63.81
72798;BME280;61084;55.816;37.036;2023-05-22T00:43:45;100174.78;;;9.49;63.59
72798;BME280;61084;55.816;37.036;2023-05-22T00:46:13;100173.09;;;9.48;63.98
72798;BME280;61084;55.816;37.036;2023-05-22T00:48:39;100174.91;;;9.46;64.50
72798;BME280;61084;55.816;37.036;2023-05-22T00:51:05;100169.66;;;9.46;64.41
72798;BME280;61084;55.816;37.036;2023-05-22T00:53:32;100170.50;;;9.46;64.09
72798;BME280;61084;55.816;37.036;2023-05-22T00:55:58;100170.47;;;9.48;64.03
72798;BME280;61084;55.816;37.036;2023-05-22T00:58:26;100164.38;;;9.47;63.50
72798;BME280;61084;55.816;37.036;2023-05-22T01:00:52;100167.84;;;9.48;63.70
72798;BME280;61084;55.816;37.036;2023-05-22T01:03:20;100165.22;;;9.48;63.93
72798;BME280;61084;55.816;37.036;2023-05-22T01:05:51;100167.88;;;9.46;63.93
72798;BME280;61084;55.816;37.036;2023-05-22T01:08:19;100164.44;;;9.46;63.71
72798;BME280;61084;55.816;37.036;2023-05-22T01:10:45;100171.38;;;9.47;63.89
72798;BME280;61084;55.816;37.036;2023-05-22T01:32:01;100178.16;;;9.52;64.89
72798;BME280;61084;55.816;37.036;2023-05-22T01:34:29;100178.09;;;9.54;65.00
72798;BME280;61084;55.816;37.036;2023-05-22T01:36:56;100178.03;;;9.55;65.11
72798;BME280;61084;55.816;37.036;2023-05-22T01:39:26;100164.06;;;9.55;65.25
72798;BME280;61084;55.816;37.036;2023-05-22T01:41:53;100175.41;;;9.55;64.70
72798;BME280;61084;55.816;37.036;2023-05-22T01:44:19;100166.69;;;9.55;65.15
72798;BME280;61084;55.816;37.036;2023-05-22T01:46:45;100178.03;;;9.55;64.90
72798;BME280;61084;55.816;37.036;2023-05-22T01:49:11;100180.63;;;9.57;64.75
72798;BME280;61084;55.816;37.036;2023-05-22T01:51:54;100177.00;;;9.59;65.29
72798;BME280;61084;55.816;37.036;2023-05-22T01:54:54;100183.03;;;9.61;65.49
72798;BME280;61084;55.816;37.036;2023-05-22T01:57:40;100177.78;;;9.63;65.21
72798;BME280;61084;55.816;37.036;2023-05-22T02:00:10;100172.53;;;9.63;65.08
72798;BME280;61084;55.816;37.036;2023-05-22T02:02:48;100179.53;;;9.62;65.20
72798;BME280;61084;55.816;37.036;2023-05-22T02:05:18;100175.16;;;9.63;64.95
72798;BME280;61084;55.816;37.036;2023-05-22T02:07:46;100163.75;;;9.64;64.93
72798;BME280;61084;55.816;37.036;2023-05-22T02:10:13;100168.97;;;9.64;65.36
72798;BME280;61084;55.816;37.036;2023-05-22T02:12:40;100172.47;;;9.64;65.24
72798;BME280;61084;55.816;37.036;2023-05-22T02:15:08;100166.25;;;9.67;65.64
72798;BME280;61084;55.816;37.036;2023-05-22T02:17:38;100161.72;;;9.72;65.66
72798;BME280;61084;55.816;37.036;2023-05-22T02:20:10;100164.34;;;9.72;65.95
72798;BME280;61084;55.816;37.036;2023-05-22T02:22:42;100160.69;;;9.76;65.49
72798;BME280;61084;55.816;37.036;2023-05-22T02:25:10;100161.41;;;9.79;65.43
72798;BME280;61084;55.816;37.036;2023-05-22T02:27:44;100168.13;;;9.86;65.60
72798;BME280;61084;55.816;37.036;2023-05-22T02:30:11;100168.84;;;9.92;65.65
72798;BME280;61084;55.816;37.036;2023-05-22T02:32:40;100162.41;;;9.99;65.71
72798;BME280;61084;55.816;37.036;2023-05-22T02:35:07;100163.81;;;10.07;65.45
72798;BME280;61084;55.816;37.036;2023-05-22T02:37:33;100171.53;;;10.13;66.12
72798;BME280;61084;55.816;37.036;2023-05-22T02:40:00;100172.31;;;10.15;66.05
72798;BME280;61084;55.816;37.036;2023-05-22T02:42:28;100174.59;;;10.24;66.12
72798;BME280;61084;55.816;37.036;2023-05-22T02:44:54;100173.41;;;10.31;66.25
72798;BME280;61084;55.816;37.036;2023-05-22T02:47:20;100167.06;;;10.37;66.35
72798;BME280;61084;55.816;37.036;2023-05-22T02:49:46;100177.31;;;10.43;66.08
72798;BME280;61084;55.816;37.036;2023-05-22T02:52:14;100179.69;;;10.49;65.97
72798;BME280;61084;55.816;37.036;2023-05-22T02:54:39;100174.97;;;10.57;66.06
72798;BME280;61084;55.816;37.036;2023-05-22T02:57:06;100172.06;;;10.65;66.14
72798;BME280;61084;55.816;37.036;2023-05-22T02:59:32;100174.50;;;10.69;66.40
72798;BME280;61084;55.816;37.036;2023-05-22T03:02:00;100178.78;;;10.72;66.11
72798;BME280;61084;55.816;37.036;2023-05-22T03:04:26;100181.13;;;10.78;66.35
72798;BME280;61084;55.816;37.036;2023-05-22T03:06:52;100172.09;;;10.85;66.15
72798;BME280;61084;55.816;37.036;2023-05-22T03:09:19;100168.41;;;10.89;66.19
72798;BME280;61084;55.816;37.036;2023-05-22T03:11:45;100173.53;;;10.92;66.38
72798;BME280;61084;55.816;37.036;2023-05-22T03:14:11;100176.91;;;10.95;66.59
72798;BME280;61084;55.816;37.036;2023-05-22T03:16:36;100161.81;;;11.00;66.37
72798;BME280;61084;55.816;37.036;2023-05-22T03:21:32;100169.88;;;11.16;66.84
72798;BME280;61084;55.816;37.036;2023-05-22T03:23:58;100165.97;;;11.24;66.90
72798;BME280;61084;55.816;37.036;2023-05-22T03:26:24;100171.78;;;11.32;66.42
72798;BME280;61084;55.816;37.036;2023-05-22T03:28:54;100169.59;;;11.42;66.89
72798;BME280;61084;55.816;37.036;2023-05-22T03:31:26;100173.75;;;11.48;66.66
72798;BME280;61084;55.816;37.036;2023-05-22T03:34:11;100170.75;;;11.55;66.72
72798;BME280;61084;55.816;37.036;2023-05-22T03:36:38;100162.75;;;11.58;66.53
72798;BME280;61084;55.816;37.036;2023-05-22T03:39:06;100171.34;;;11.62;66.79
72798;BME280;61084;55.816;37.036;2023-05-22T03:41:36;100174.69;;;11.65;66.84
72798;BME280;61084;55.816;37.036;2023-05-22T03:44:03;100173.59;;;11.71;66.53
72798;BME280;61084;55.816;37.036;2023-05-22T03:46:29;100176.88;;;11.76;66.47
72798;BME280;61084;55.816;37.036;2023-05-22T03:48:55;100172.41;;;11.78;66.48
72798;BME280;61084;55.816;37.036;2023-05-22T03:51:23;100173.97;;;11.82;66.57
72798;BME280;61084;55.816;37.036;2023-05-22T03:53:49;100172.03;;;11.85;66.33
72798;BME280;61084;55.816;37.036;2023-05-22T03:56:15;100171.91;;;11.88;65.99
72798;BME280;61084;55.816;37.036;2023-05-22T03:58:41;100178.72;;;11.92;65.89
72798;BME280;61084;55.816;37.036;2023-05-22T04:01:07;100182.91;;;11.96;65.86
72798;BME280;61084;55.816;37.036;2023-05-22T04:03:36;100179.25;;;12.00;65.71
72798;BME280;61084;55.816;37.036;2023-05-22T04:06:03;100174.53;;;12.07;66.25
72798;BME280;61084;55.816;37.036;2023-05-22T04:08:30;100179.66;;;12.10;66.02
72798;BME280;61084;55.816;37.036;2023-05-22T04:10:59;100183.63;;;12.19;65.85
72798;BME280;61084;55.816;37.036;2023-05-22T04:13:26;100186.75;;;12.27;65.96
72798;BME280;61084;55.816;37.036;2023-05-22T04:15:52;100189.91;;;12.35;65.74
72798;BME280;61084;55.816;37.036;2023-05-22T04:18:18;100190.47;;;12.41;65.70
72798;BME280;61084;55.816;37.036;2023-05-22T04:20:44;100187.44;;;12.49;66.29
72798;BME280;61084;55.816;37.036;2023-05-22T04:23:10;100197.53;;;12.58;65.82
72798;BME280;61084;55.816;37.036;2023-05-22T04:25:36;100190.09;;;12.66;65.63
72798;BME280;61084;55.816;37.036;2023-05-22T04:28:20;100192.28;;;12.75;65.65
72798;BME280;61084;55.816;37.036;2023-05-22T04:30:47;100192.78;;;12.83;65.23
72798;BME280;61084;55.816;37.036;2023-05-22T04:33:13;100188.13;;;12.88;65.22
72798;BME280;61084;55.816;37.036;2023-05-22T04:35:41;100179.91;;;12.94;64.97
72798;BME280;61084;55.816;37.036;2023-05-22T04:38:06;100175.28;;;12.99;65.06
72798;BME280;61084;55.816;37.036;2023-05-22T04:40:33;100181.03;;;13.07;65.26
72798;BME280;61084;55.816;37.036;2023-05-22T04:42:59;100179.75;;;13.16;64.97
72798;BME280;61084;55.816;37.036;2023-05-22T04:45:26;100177.47;;;13.25;64.89
72798;BME280;61084;55.816;37.036;2023-05-22T04:47:57;100178.63;;;13.37;64.63
72798;BME280;61084;55.816;37.036;2023-05-22T04:50:30;100188.53;;;13.49;64.52
72798;BME280;61084;55.816;37.036;2023-05-22T04:52:58;100178.47;;;13.57;64.51
72798;BME280;61084;55.816;37.036;2023-05-22T04:55:24;100181.63;;;13.64;64.32
72798;BME280;61084;55.816;37.036;2023-05-22T04:57:50;100182.06;;;13.72;64.23
72798;BME280;61084;55.816;37.036;2023-05-22T05:00:18;100186.84;;;13.81;63.88
72798;BME280;61084;55.816;37.036;2023-05-22T05:02:45;100197.94;;;13.87;63.63
72798;BME280;61084;55.816;37.036;2023-05-22T05:05:11;100187.03;;;13.93;63.44
72798;BME280;61084;55.816;37.036;2023-05-22T05:07:38;100189.19;;;14.02;63.32
72798;BME280;61084;55.816;37.036;2023-05-22T05:10:04;100194.91;;;14.10;62.94
72798;BME280;61084;55.816;37.036;2023-05-22T05:12:31;100192.94;;;14.14;62.93
72798;BME280;61084;55.816;37.036;2023-05-22T05:14:57;100196.19;;;14.19;62.98
72798;BME280;61084;55.816;37.036;2023-05-22T05:17:23;100196.69;;;14.25;62.88
72798;BME280;61084;55.816;37.036;2023-05-22T05:19:49;100199.19;;;14.28;62.72
72798;BME280;61084;55.816;37.036;2023-05-22T05:22:15;100192.91;;;14.31;62.83
72798;BME280;61084;55.816;37.036;2023-05-22T05:24:59;100187.44;;;14.34;62.83
72798;BME280;61084;55.816;37.036;2023-05-22T05:27:30;100184.69;;;14.35;62.86
72798;BME280;61084;55.816;37.036;2023-05-22T05:29:56;100183.63;;;14.40;62.54
72798;BME280;61084;55.816;37.036;2023-05-22T05:32:31;100192.22;;;14.43;62.66
72798;BME280;61084;55.816;37.036;2023-05-22T05:35:29;100189.41;;;14.46;62.59
72798;BME280;61084;55.816;37.036;2023-05-22T05:38:21;100192.63;;;14.51;62.49
72798;BME280;61084;55.816;37.036;2023-05-22T05:40:47;100188.88;;;14.55;62.40
72798;BME280;61084;55.816;37.036;2023-05-22T05:43:14;100185.13;;;14.59;62.17
72798;BME280;61084;55.816;37.036;2023-05-22T05:45:59;100182.16;;;14.65;62.24
72798;BME280;61084;55.816;37.036;2023-05-22T05:48:43;100186.22;;;14.71;62.36
72798;BME280;61084;55.816;37.036;2023-05-22T05:51:10;100184.25;;;14.74;62.32
72798;BME280;61084;55.816;37.036;2023-05-22T05:53:54;100184.94;;;14.78;62.42
72798;BME280;61084;55.816;37.036;2023-05-22T05:56:21;100181.25;;;14.80;62.23
72798;BME280;61084;55.816;37.036;2023-05-22T05:58:47;100181.06;;;14.83;62.36
72798;BME280;61084;55.816;37.036;2023-05-22T06:01:44;100177.34;;;14.87;62.42
72798;BME280;61084;55.816;37.036;2023-05-22T06:04:18;100187.59;;;14.92;62.24
72798;BME280;61084;55.816;37.036;2023-05-22T06:06:46;100193.59;;;14.95;62.36
72798;BME280;61084;55.816;37.036;2023-05-22T06:09:15;100195.22;;;14.98;62.48
72798;BME280;61084;55.816;37.036;2023-05-22T06:12:19;100201.00;;;15.04;62.31
72798;BME280;61084;55.816;37.036;2023-05-22T06:15:05;100202.50;;;15.08;62.22
72798;BME280;61084;55.816;37.036;2023-05-22T06:17:32;100202.31;;;15.11;62.22
72798;BME280;61084;55.816;37.036;2023-05-22T06:19:58;100202.16;;;15.15;62.20
72798;BME280;61084;55.816;37.036;2023-05-22T06:22:24;100201.13;;;15.17;62.57
72798;BME280;61084;55.816;37.036;2023-05-22T06:24:53;100192.91;;;15.22;62.47
72798;BME280;61084;55.816;37.036;2023-05-22T06:27:22;100196.16;;;15.27;62.88
72798;BME280;61084;55.816;37.036;2023-05-22T06:29:49;100199.44;;;15.30;62.58
72798;BME280;61084;55.816;37.036;2023-05-22T06:32:15;100203.63;;;15.34;63.39
72798;BME280;61084;55.816;37.036;2023-05-22T06:34:45;100198.97;;;15.38;63.21
72798;BME280;61084;55.816;37.036;2023-05-22T06:37:12;100209.41;;;15.41;63.27
72798;BME280;61084;55.816;37.036;2023-05-22T06:39:41;100212.72;;;15.44;63.17
72798;BME280;61084;55.816;37.036;2023-05-22T06:42:39;100209.81;;;15.49;63.48
72798;BME280;61084;55.816;37.036;2023-05-22T06:45:24;100210.56;;;15.51;63.71
72798;BME280;61084;55.816;37.036;2023-05-22T06:48:19;100205.09;;;15.54;63.65
72798;BME280;61084;55.816;37.036;2023-05-22T06:51:05;100207.66;;;15.55;63.53
72798;BME280;61084;55.816;37.036;2023-05-22T06:53:31;100198.03;;;15.54;63.85
72798;BME280;61084;55.816;37.036;2023-05-22T06:55:57;100202.34;;;15.55;63.94
72798;BME280;61084;55.816;37.036;2023-05-22T06:58:43;100198.69;;;15.58;63.76
72798;BME280;61084;55.816;37.036;2023-05-22T07:01:09;100199.34;;;15.61;64.47
72798;BME280;61084;55.816;37.036;2023-05-22T07:03:41;100204.44;;;15.64;64.05
72798;BME280;61084;55.816;37.036;2023-05-22T07:06:36;100192.06;;;15.65;64.86
72798;BME280;61084;55.816;37.036;2023-05-22T07:09:04;100196.50;;;15.64;64.38
72798;BME280;61084;55.816;37.036;2023-05-22T07:11:31;100196.34;;;15.67;64.05
72798;BME280;61084;55.816;37.036;2023-05-22T07:13:57;100181.22;;;15.69;63.54
72798;BME280;61084;55.816;37.036;2023-05-22T07:16:24;100196.13;;;15.70;63.76
72798;BME280;61084;55.816;37.036;2023-05-22T07:18:50;100199.72;;;15.69;63.93
72798;BME280;61084;55.816;37.036;2023-05-22T07:21:17;100204.16;;;15.69;63.84
72798;BME280;61084;55.816;37.036;2023-05-22T07:23:43;100211.19;;;15.70;63.95
72798;BME280;61084;55.816;37.036;2023-05-22T07:26:09;100209.47;;;15.69;64.26
72798;BME280;61084;55.816;37.036;2023-05-22T07:28:41;100211.94;;;15.72;64.66
72798;BME280;61084;55.816;37.036;2023-05-22T07:31:12;100218.84;;;15.74;64.75
72798;BME280;61084;55.816;37.036;2023-05-22T07:33:38;100223.06;;;15.77;64.51
72798;BME280;61084;55.816;37.036;2023-05-22T07:36:04;100225.94;;;15.74;64.94
72798;BME280;61084;55.816;37.036;2023-05-22T07:38:30;100229.44;;;15.74;65.84
72798;BME280;61084;55.816;37.036;2023-05-22T07:41:00;100223.06;;;15.77;65.41
72798;BME280;61084;55.816;37.036;2023-05-22T07:43:28;100214.19;;;15.78;65.67
72798;BME280;61084;55.816;37.036;2023-05-22T07:45:55;100211.44;;;15.79;65.63
72798;BME280;61084;55.816;37.036;2023-05-22T07:48:27;100216.47;;;15.84;65.42
72798;BME280;61084;55.816;37.036;2023-05-22T07:50:53;100220.63;;;15.88;65.57
72798;BME280;61084;55.816;37.036;2023-05-22T07:53:19;100220.34;;;15.93;65.90
72798;BME280;61084;55.816;37.036;2023-05-22T07:55:48;100215.72;;;15.96;65.82
72798;BME280;61084;55.816;37.036;2023-05-22T07:58:15;100228.88;;;15.98;66.11
72798;BME280;61084;55.816;37.036;2023-05-22T08:00:43;100234.06;;;15.99;66.01
72798;BME280;61084;55.816;37.036;2023-05-22T08:03:09;100233.13;;;16.00;65.88
72798;BME280;61084;55.816;37.036;2023-05-22T08:05:35;100236.53;;;16.02;66.12
72798;BME280;61084;55.816;37.036;2023-05-22T08:08:01;100237.28;;;16.04;66.08
72798;BME280;61084;55.816;37.036;2023-05-22T08:10:27;100245.88;;;16.08;65.83
72798;BME280;61084;55.816;37.036;2023-05-22T08:12:53;100234.34;;;16.09;66.55
72798;BME280;61084;55.816;37.036;2023-05-22T08:15:19;100237.84;;;16.09;66.24
72798;BME280;61084;55.816;37.036;2023-05-22T08:17:46;100236.03;;;16.10;66.43
72798;BME280;61084;55.816;37.036;2023-05-22T08:20:11;100232.47;;;16.11;66.40
72798;BME280;61084;55.816;37.036;2023-05-22T08:22:38;100235.00;;;16.12;66.35
72798;BME280;61084;55.816;37.036;2023-05-22T08:25:04;100222.50;;;16.14;66.40
72798;BME280;61084;55.816;37.036;2023-05-22T08:27:31;100225.91;;;16.16;65.99
72798;BME280;61084;55.816;37.036;2023-05-22T08:29:57;100222.22;;;16.19;66.48
72798;BME280;61084;55.816;37.036;2023-05-22T08:32:23;100241.44;;;16.22;66.61
72798;BME280;61084;55.816;37.036;2023-05-22T08:34:48;100243.72;;;16.28;66.39
72798;BME280;61084;55.816;37.036;2023-05-22T08:37:15;100244.47;;;16.30;66.46
72798;BME280;61084;55.816;37.036;2023-05-22T08:39:40;100240.94;;;16.30;66.64
72798;BME280;61084;55.816;37.036;2023-05-22T08:42:06;100233.88;;;16.30;66.72
72798;BME280;61084;55.816;37.036;2023-05-22T08:44:32;100224.13;;;16.31;66.57
72798;BME280;61084;55.816;37.036;2023-05-22T08:47:00;100234.50;;;16.34;66.49
72798;BME280;61084;55.816;37.036;2023-05-22T08:49:26;100230.06;;;16.34;66.53
72798;BME280;61084;55.816;37.036;2023-05-22T08:51:55;100228.06;;;16.38;66.85
72798;BME280;61084;55.816;37.036;2023-05-22T08:54:25;100219.06;;;16.40;66.56
72798;BME280;61084;55.816;37.036;2023-05-22T08:56:52;100209.22;;;16.42;66.81
72798;BME280;61084;55.816;37.036;2023-05-22T08:59:18;100202.88;;;16.45;66.56
72798;BME280;61084;55.816;37.036;2023-05-22T09:01:45;100196.44;;;16.49;66.64
72798;BME280;61084;55.816;37.036;2023-05-22T09:04:12;100202.50;;;16.51;66.47
72798;BME280;61084;55.816;37.036;2023-05-22T09:06:38;100211.22;;;16.53;66.73
72798;BME280;61084;55.816;37.036;2023-05-22T09:09:04;100206.78;;;16.53;66.13
72798;BME280;61084;55.816;37.036;2023-05-22T09:11:30;100214.81;;;16.52;65.95
72798;BME280;61084;55.816;37.036;2023-05-22T09:14:06;100225.53;;;16.50;66.62
72798;BME280;61084;55.816;37.036;2023-05-22T09:16:43;100215.84;;;16.49;66.45
72798;BME280;61084;55.816;37.036;2023-05-22T09:19:10;100201.72;;;16.49;66.60
72798;BME280;61084;55.816;37.036;2023-05-22T09:21:36;100223.91;;;16.48;66.64
72798;BME280;61084;55.816;37.036;2023-05-22T09:24:02;100221.94;;;16.51;66.74
72798;BME280;61084;55.816;37.036;2023-05-22T09:26:28;100234.88;;;16.56;66.91
72798;BME280;61084;55.816;37.036;2023-05-22T09:28:54;100243.47;;;16.59;66.49
72798;BME280;61084;55.816;37.036;2023-05-22T09:31:21;100235.34;;;16.63;66.55
72798;BME280;61084;55.816;37.036;2023-05-22T09:33:47;100224.44;;;16.67;66.77
72798;BME280;61084;55.816;37.036;2023-05-22T09:36:13;100223.28;;;16.71;66.86
72798;BME280;61084;55.816;37.036;2023-05-22T09:38:39;100224.72;;;16.77;66.64
72798;BME280;61084;55.816;37.036;2023-05-22T09:41:05;100214.00;;;16.78;66.65
72798;BME280;61084;55.816;37.036;2023-05-22T09:43:32;100207.41;;;16.84;66.37
72798;BME280;61084;55.816;37.036;2023-05-22T09:46:02;100213.19;;;16.90;66.76
72798;BME280;61084;55.816;37.036;2023-05-22T09:48:34;100220.66;;;16.98;66.46
72798;BME280;61084;55.816;37.036;2023-05-22T09:51:03;100209.81;;;17.01;66.71
72798;BME280;61084;55.816;37.036;2023-05-22T09:53:31;100210.59;;;17.03;66.64
72798;BME280;61084;55.816;37.036;2023-05-22T09:55:58;100212.81;;;17.09;66.64
72798;BME280;61084;55.816;37.036;2023-05-22T09:58:26;100221.41;;;17.12;66.60
72798;BME280;61084;55.816;37.036;2023-05-22T10:00:53;100206.25;;;17.14;66.40
72798;BME280;61084;55.816;37.036;2023-05-22T10:03:22;100210.38;;;17.18;66.13
72798;BME280;61084;55.816;37.036;2023-05-22T10:05:53;100217.19;;;17.22;66.47
72798;BME280;61084;55.816;37.036;2023-05-22T10:08:31;100217.75;;;17.27;66.32
72798;BME280;61084;55.816;37.036;2023-05-22T10:11:19;100206.25;;;17.27;66.10
72798;BME280;61084;55.816;37.036;2023-05-22T10:13:46;100203.31;;;17.31;66.21
72798;BME280;61084;55.816;37.036;2023-05-22T10:16:14;100215.22;;;17.39;66.34
72798;BME280;61084;55.816;37.036;2023-05-22T10:18:44;100199.91;;;17.42;66.67
72798;BME280;61084;55.816;37.036;2023-05-22T10:21:10;100204.09;;;17.46;66.04
72798;BME280;61084;55.816;37.036;2023-05-22T10:23:37;100195.03;;;17.49;65.76
72798;BME280;61084;55.816;37.036;2023-05-22T10:26:04;100194.75;;;17.53;66.16
72798;BME280;61084;55.816;37.036;2023-05-22T10:28:41;100195.09;;;17.61;66.98
72798;BME280;61084;55.816;37.036;2023-05-22T10:31:25;100191.16;;;17.67;66.07
72798;BME280;61084;55.816;37.036;2023-05-22T10:34:16;100190.84;;;17.71;66.41
72798;BME280;61084;55.816;37.036;2023-05-22T10:42:21;100190.50;;;18.01;65.20
72798;BME280;61084;55.816;37.036;2023-05-22T10:44:47;100184.66;;;18.08;65.86
72798;BME280;61084;55.816;37.036;2023-05-22T10:47:14;100185.78;;;18.17;65.68
72798;BME280;61084;55.816;37.036;2023-05-22T10:49:42;100191.53;;;18.24;65.71
72798;BME280;61084;55.816;37.036;2023-05-22T10:52:09;100192.16;;;18.27;65.21
72798;BME280;61084;55.816;37.036;2023-05-22T10:54:41;100180.72;;;18.38;64.95
72798;BME280;61084;55.816;37.036;2023-05-22T10:57:15;100183.50;;;18.49;64.53
72798;BME280;61084;55.816;37.036;2023-05-22T11:00:16;100183.91;;;18.55;65.45
72798;BME280;61084;55.816;37.036;2023-05-22T11:02:47;100176.63;;;18.70;64.57
72798;BME280;61084;55.816;37.036;2023-05-22T11:07:50;100189.28;;;18.90;64.59
72798;BME280;61084;55.816;37.036;2023-05-22T11:10:25;100187.06;;;19.08;64.60
72798;BME280;61084;55.816;37.036;2023-05-22T11:13:10;100176.59;;;19.28;64.13
72798;BME280;61084;55.816;37.036;2023-05-22T11:15:55;100179.81;;;19.44;64.04
72798;BME280;61084;55.816;37.036;2023-05-22T11:18:22;100176.34;;;19.55;63.46
72798;BME280;61084;55.816;37.036;2023-05-22T11:20:49;100171.50;;;19.71;63.18
72798;BME280;61084;55.816;37.036;2023-05-22T11:23:17;100174.53;;;19.89;62.75
72798;BME280;61084;55.816;37.036;2023-05-22T11:25:43;100167.03;;;20.05;62.03
72798;BME280;61084;55.816;37.036;2023-05-22T11:28:10;100172.09;;;20.19;61.72
72798;BME280;61084;55.816;37.036;2023-05-22T11:30:37;100165.34;;;20.37;61.78
72798;BME280;61084;55.816;37.036;2023-05-22T11:33:04;100163.94;;;20.54;61.45
72798;BME280;61084;55.816;37.036;2023-05-22T11:35:49;100169.59;;;20.71;61.58
72798;BME280;61084;55.816;37.036;2023-05-22T11:38:18;100166.75;;;20.84;60.81
72798;BME280;61084;55.816;37.036;2023-05-22T11:40:44;100172.09;;;20.84;60.56
72798;BME280;61084;55.816;37.036;2023-05-22T11:43:10;100157.84;;;20.94;60.48
72798;BME280;61084;55.816;37.036;2023-05-22T11:45:38;100160.03;;;21.00;60.05
72798;BME280;61084;55.816;37.036;2023-05-22T11:48:04;100158.84;;;21.05;59.86
72798;BME280;61084;55.816;37.036;2023-05-22T11:50:30;100155.78;;;21.09;59.92
72798;BME280;61084;55.816;37.036;2023-05-22T11:52:56;100155.50;;;21.12;59.82
72798;BME280;61084;55.816;37.036;2023-05-22T11:55:42;100150.88;;;21.14;59.29
72798;BME280;61084;55.816;37.036;2023-05-22T11:58:08;100158.25;;;21.22;59.38
72798;BME280;61084;55.816;37.036;2023-05-22T12:00:34;100146.78;;;21.31;59.48
72798;BME280;61084;55.816;37.036;2023-05-22T12:02:59;100153.63;;;21.44;59.30
72798;BME280;61084;55.816;37.036;2023-05-22T12:05:44;100144.88;;;21.63;58.75
72798;BME280;61084;55.816;37.036;2023-05-22T12:08:11;100142.19;;;21.63;58.42
72798;BME280;61084;55.816;37.036;2023-05-22T12:10:37;100138.03;;;21.70;58.41
72798;BME280;61084;55.816;37.036;2023-05-22T12:13:03;100135.91;;;21.73;58.23
72798;BME280;61084;55.816;37.036;2023-05-22T12:15:29;100134.25;;;21.82;58.20
72798;BME280;61084;55.816;37.036;2023-05-22T12:18:16;100131.06;;;21.88;58.13
72798;BME280;61084;55.816;37.036;2023-05-22T12:20:42;100137.13;;;21.90;57.79
72798;BME280;61084;55.816;37.036;2023-05-22T12:23:21;100139.53;;;21.93;57.45
72798;BME280;61084;55.816;37.036;2023-05-22T12:25:55;100131.84;;;22.00;57.43
72798;BME280;61084;55.816;37.036;2023-05-22T12:28:21;100126.78;;;22.06;57.73
72798;BME280;61084;55.816;37.036;2023-05-22T12:30:51;100128.78;;;22.14;57.50
72798;BME280;61084;55.816;37.036;2023-05-22T12:33:18;100124.84;;;22.18;57.04
72798;BME280;61084;55.816;37.036;2023-05-22T12:35:48;100122.19;;;22.18;56.61
72798;BME280;61084;55.816;37.036;2023-05-22T12:38:14;100121.06;;;22.20;56.86
72798;BME280;61084;55.816;37.036;2023-05-22T12:43:24;100116.72;;;22.29;56.76
72798;BME280;61084;55.816;37.036;2023-05-22T12:45:51;100111.94;;;22.32;56.39
72798;BME280;61084;55.816;37.036;2023-05-22T12:51:01;100109.00;;;22.45;56.25
72798;BME280;61084;55.816;37.036;2023-05-22T12:56:12;100097.34;;;22.65;56.11
72798;BME280;61084;55.816;37.036;2023-05-22T12:58:37;100095.78;;;22.82;56.18
72798;BME280;61084;55.816;37.036;2023-05-22T13:01:03;100102.44;;;22.87;55.62
72798;BME280;61084;55.816;37.036;2023-05-22T13:03:29;100103.56;;;22.94;55.49
72798;BME280;61084;55.816;37.036;2023-05-22T13:05:55;100095.06;;;23.08;55.14
72798;BME280;61084;55.816;37.036;2023-05-22T13:08:21;100094.91;;;23.19;55.00
72798;BME280;61084;55.816;37.036;2023-05-22T13:10:48;100090.09;;;23.23;55.17
72798;BME280;61084;55.816;37.036;2023-05-22T13:13:13;100088.97;;;23.25;55.01
72798;BME280;61084;55.816;37.036;2023-05-22T13:15:39;100091.66;;;23.35;54.52
72798;BME280;61084;55.816;37.036;2023-05-22T13:18:05;100102.59;;;23.51;54.16
72798;BME280;61084;55.816;37.036;2023-05-22T13:20:50;100097.31;;;23.69;54.04
72798;BME280;61084;55.816;37.036;2023-05-22T13:23:16;100095.84;;;23.84;53.33
72798;BME280;61084;55.816;37.036;2023-05-22T13:26:00;100089.84;;;23.99;53.63
72798;BME280;61084;55.816;37.036;2023-05-22T13:28:26;100084.59;;;24.08;53.14
72798;BME280;61084;55.816;37.036;2023-05-22T13:31:11;100080.31;;;24.15;52.50
72798;BME280;61084;55.816;37.036;2023-05-22T13:33:37;100085.69;;;24.15;52.59